createdAt,value
2023-01-22T00:00:19.729Z,33.91
2023-01-22T00:02:49.385Z,33.58
2023-01-22T00:05:17.710Z,33.90
2023-01-22T00:07:45.758Z,33.92
2023-01-22T00:10:13.912Z,33.63
2023-01-22T00:12:42.026Z,34.20
2023-01-22T00:15:10.739Z,34.26
2023-01-22T00:17:38.931Z,34.31
2023-01-22T00:20:10.588Z,34.25
2023-01-22T00:22:38.816Z,34.54
2023-01-22T00:25:08.068Z,34.04
2023-01-22T00:27:36.232Z,34.02
2023-01-22T00:30:04.855Z,33.72
2023-01-22T00:32:32.902Z,34.06
2023-01-22T00:35:01.138Z,34.39
2023-01-22T00:37:30.592Z,34.49
2023-01-22T00:39:58.972Z,33.86
2023-01-22T00:42:27.079Z,34.32
2023-01-22T00:44:55.218Z,34.45
2023-01-22T00:47:23.323Z,34.34
2023-01-22T00:49:51.559Z,34.36
2023-01-22T00:52:19.606Z,33.85
2023-01-22T00:54:49.096Z,34.30
2023-01-22T00:57:21.677Z,33.73
2023-01-22T00:59:49.850Z,34.47
2023-01-22T01:02:18.059Z,34.30
2023-01-22T01:04:46.247Z,34.47
2023-01-22T01:07:14.323Z,34.32
2023-01-22T01:09:44.289Z,34.51
2023-01-22T01:12:13.799Z,33.80
2023-01-22T01:14:41.862Z,34.44
2023-01-22T01:17:09.983Z,34.52
2023-01-22T01:19:38.058Z,34.19
2023-01-22T01:22:08.237Z,33.92
2023-01-22T01:24:37.170Z,33.77
2023-01-22T01:27:05.233Z,34.46
2023-01-22T01:29:34.735Z,34.08
2023-01-22T01:32:02.949Z,34.14
2023-01-22T01:34:31.184Z,33.67
2023-01-22T01:36:59.253Z,33.79
2023-01-22T01:39:27.362Z,33.99
2023-01-22T01:41:55.528Z,34.41
2023-01-22T01:44:24.207Z,34.35
2023-01-22T01:46:57.140Z,33.96
2023-01-22T01:49:28.399Z,34.18
2023-01-22T01:51:58.092Z,34.00
2023-01-22T01:54:26.162Z,34.24
2023-01-22T01:56:55.906Z,34.39
2023-01-22T01:59:24.105Z,34.18
2023-01-22T02:01:56.026Z,34.42
2023-01-22T02:04:24.424Z,33.92
2023-01-22T02:06:52.565Z,33.80
2023-01-22T02:09:20.786Z,33.72
2023-01-22T02:11:49.749Z,33.74
2023-01-22T02:14:19.759Z,33.81
2023-01-22T02:16:47.885Z,34.41
2023-01-22T02:19:18.320Z,34.07
2023-01-22T02:21:48.530Z,34.22
2023-01-22T02:24:17.588Z,34.24
2023-01-22T02:26:46.370Z,33.94
2023-01-22T02:29:18.761Z,33.72
2023-01-22T02:31:46.966Z,34.23
2023-01-22T02:34:15.229Z,33.73
2023-01-22T02:36:45.791Z,34.29
2023-01-22T02:39:15.327Z,34.07
2023-01-22T02:41:43.401Z,34.44
2023-01-22T02:44:13.326Z,34.49
2023-01-22T02:46:41.523Z,33.73
2023-01-22T02:49:09.647Z,34.14
2023-01-22T02:51:37.736Z,34.01
2023-01-22T02:54:05.969Z,33.93
2023-01-22T02:56:36.448Z,33.92
2023-01-22T02:59:04.881Z,33.82
2023-01-22T03:01:33.244Z,33.83
2023-01-22T03:04:11.050Z,34.29
2023-01-22T03:06:40.067Z,34.48
2023-01-22T03:09:09.040Z,34.40
2023-01-22T03:11:40.558Z,34.49
2023-01-22T03:14:32.950Z,33.98
2023-01-22T03:17:18.753Z,34.51
2023-01-22T03:20:04.245Z,33.76
2023-01-22T03:22:32.953Z,33.98
2023-01-22T03:25:01.551Z,34.49
2023-01-22T03:27:32.297Z,34.35
2023-01-22T03:30:00.496Z,34.51
2023-01-22T03:32:32.930Z,33.71
2023-01-22T03:35:01.924Z,34.15
2023-01-22T03:37:41.078Z,33.83
2023-01-22T03:40:11.081Z,34.57
2023-01-22T03:42:42.150Z,34.47
2023-01-22T03:45:11.148Z,34.10
2023-01-22T03:47:39.303Z,34.58
2023-01-22T03:50:21.954Z,33.87
2023-01-22T03:52:50.140Z,33.71
2023-01-22T03:55:18.275Z,34.48
2023-01-22T03:57:47.941Z,34.57
2023-01-22T04:00:16.799Z,34.37
2023-01-22T04:02:45.123Z,34.44
2023-01-22T04:05:21.336Z,34.24
2023-01-22T04:07:50.600Z,34.63
2023-01-22T04:10:21.433Z,34.50
2023-01-22T04:12:52.492Z,34.58
2023-01-22T04:15:23.175Z,34.64
2023-01-22T04:17:52.667Z,33.84
2023-01-22T04:20:34.055Z,34.21
2023-01-22T04:23:32.312Z,33.89
2023-01-22T04:26:03.061Z,34.61
2023-01-22T04:28:32.851Z,34.37
2023-01-22T04:31:04.138Z,33.95
2023-01-22T04:33:42.105Z,33.99
2023-01-22T04:36:16.177Z,34.64
2023-01-22T04:38:45.177Z,34.51
2023-01-22T04:41:13.259Z,34.03
2023-01-22T04:43:42.787Z,34.57
2023-01-22T04:46:11.018Z,34.39
2023-01-22T04:48:39.207Z,34.48
2023-01-22T04:51:07.531Z,34.05
2023-01-22T04:53:35.778Z,33.84
2023-01-22T04:56:03.923Z,34.56
2023-01-22T04:58:32.092Z,34.62
2023-01-22T05:01:02.917Z,34.02
2023-01-22T05:03:31.064Z,33.97
2023-01-22T05:05:59.103Z,34.53
2023-01-22T05:08:27.299Z,34.25
2023-01-22T05:10:55.371Z,34.15
2023-01-22T05:13:30.480Z,34.33
2023-01-22T05:15:58.629Z,33.92
2023-01-22T05:18:28.772Z,34.06
2023-01-22T05:20:56.927Z,34.62
2023-01-22T05:23:28.651Z,34.42
2023-01-22T05:25:57.239Z,34.48
2023-01-22T05:28:40.347Z,34.25
2023-01-22T05:31:34.967Z,34.64
2023-01-22T05:34:07.335Z,34.68
2023-01-22T05:36:35.564Z,34.05
2023-01-22T05:39:12.840Z,34.50
2023-01-22T05:41:41.368Z,34.07
2023-01-22T05:44:11.831Z,33.89
2023-01-22T05:49:24.319Z,34.45
2023-01-22T05:54:23.795Z,34.71
2023-01-22T05:56:52.811Z,34.27
2023-01-22T05:59:21.073Z,34.58
2023-01-22T06:01:55.723Z,34.69
2023-01-22T06:04:25.207Z,34.05
2023-01-22T06:06:53.460Z,34.66
2023-01-22T06:09:23.963Z,34.22
2023-01-22T06:11:52.184Z,34.11
2023-01-22T06:14:20.575Z,34.39
2023-01-22T06:16:50.033Z,34.54
2023-01-22T06:19:36.131Z,33.88
2023-01-22T06:22:05.732Z,34.36
2023-01-22T06:24:49.463Z,33.92
2023-01-22T06:27:18.983Z,34.69
2023-01-22T06:29:57.038Z,34.05
2023-01-22T06:32:25.232Z,34.60
2023-01-22T06:34:55.128Z,34.48
2023-01-22T06:37:23.985Z,33.94
2023-01-22T06:39:53.448Z,34.38
2023-01-22T06:42:37.936Z,33.54
2023-01-22T06:45:07.859Z,33.78
2023-01-22T06:47:37.944Z,34.22
2023-01-22T06:50:08.431Z,33.97
2023-01-22T06:52:36.575Z,33.61
2023-01-22T06:55:05.006Z,33.61
2023-01-22T06:57:33.272Z,33.76
2023-01-22T07:00:01.380Z,34.14
2023-01-22T07:02:29.990Z,34.29
2023-01-22T07:04:58.382Z,33.54
2023-01-22T07:07:27.911Z,33.83
2023-01-22T07:09:55.985Z,33.42
2023-01-22T07:12:24.347Z,33.96
2023-01-22T07:14:52.418Z,34.08
2023-01-22T07:17:20.544Z,34.14
2023-01-22T07:19:48.625Z,33.74
2023-01-22T07:22:16.760Z,33.53
2023-01-22T07:24:46.241Z,34.12
2023-01-22T07:27:14.426Z,33.55
2023-01-22T07:29:42.741Z,33.73
2023-01-22T07:32:11.012Z,33.86
2023-01-22T07:34:39.083Z,34.13
2023-01-22T07:37:07.227Z,34.03
2023-01-22T07:39:35.344Z,33.35
2023-01-22T07:42:04.979Z,33.38
2023-01-22T07:44:33.196Z,33.43
2023-01-22T07:47:02.509Z,33.41
2023-01-22T07:49:30.646Z,33.75
2023-01-22T07:51:58.697Z,33.53
2023-01-22T07:54:27.755Z,34.02
2023-01-22T07:56:55.850Z,33.69
2023-01-22T07:59:25.492Z,33.85
2023-01-22T08:01:55.490Z,33.52
2023-01-22T08:04:23.624Z,34.41
2023-01-22T08:06:51.703Z,34.13
2023-01-22T08:09:24.928Z,34.01
2023-01-22T08:11:53.492Z,34.10
2023-01-22T08:14:21.560Z,34.22
2023-01-22T08:16:51.057Z,33.56
2023-01-22T08:19:19.146Z,33.71
2023-01-22T08:21:47.354Z,33.99
2023-01-22T08:24:15.435Z,33.95
2023-01-22T08:26:45.439Z,33.48
2023-01-22T08:29:13.648Z,34.05
2023-01-22T08:31:41.804Z,33.79
2023-01-22T08:34:11.491Z,33.67
2023-01-22T08:36:39.623Z,34.18
2023-01-22T08:39:07.758Z,33.42
2023-01-22T08:41:35.851Z,33.68
2023-01-22T08:44:04.058Z,34.01
2023-01-22T08:46:32.357Z,33.71
2023-01-22T08:49:00.520Z,33.94
2023-01-22T08:51:31.483Z,34.14
2023-01-22T08:54:00.657Z,34.18
2023-01-22T08:56:29.673Z,34.21
2023-01-22T08:59:00.226Z,34.33
2023-01-22T09:01:28.456Z,34.02
2023-01-22T09:03:56.496Z,34.34
2023-01-22T09:06:25.127Z,34.53
2023-01-22T09:08:54.550Z,34.31
2023-01-22T09:11:22.699Z,34.40
2023-01-22T09:13:51.211Z,34.62
2023-01-22T09:16:19.421Z,34.69
2023-01-22T09:18:47.608Z,34.46
2023-01-22T09:21:15.731Z,34.54
2023-01-22T09:23:43.776Z,35.29
2023-01-22T09:26:13.300Z,35.20
2023-01-22T09:28:41.445Z,35.47
2023-01-22T09:31:10.299Z,34.82
2023-01-22T09:33:38.439Z,35.07
2023-01-22T09:36:10.544Z,35.22
2023-01-22T09:38:38.720Z,35.15
2023-01-22T09:41:09.090Z,35.03
2023-01-22T09:43:39.290Z,34.72
2023-01-22T09:46:10.056Z,35.14
2023-01-22T09:48:41.454Z,35.20
2023-01-22T09:51:11.305Z,35.29
2023-01-22T09:53:39.447Z,34.84
2023-01-22T09:56:08.190Z,35.05
2023-01-22T09:58:36.281Z,34.98
2023-01-22T10:01:06.347Z,34.38
2023-01-22T10:03:37.169Z,35.02
2023-01-22T10:06:08.203Z,34.96
2023-01-22T10:08:40.051Z,34.43
2023-01-22T10:11:09.788Z,34.18
2023-01-22T10:13:38.471Z,34.29
2023-01-22T10:16:08.645Z,34.47
2023-01-22T10:18:40.894Z,34.49
2023-01-22T10:21:16.139Z,33.86
2023-01-22T10:23:44.257Z,34.13
2023-01-22T10:26:15.312Z,33.88
2023-01-22T10:28:45.476Z,34.18
2023-01-22T10:31:25.216Z,34.50
2023-01-22T10:33:59.773Z,34.43
2023-01-22T10:36:28.075Z,34.12
2023-01-22T10:39:06.608Z,33.77
2023-01-22T10:41:34.877Z,34.04
2023-01-22T10:44:10.789Z,34.26
2023-01-22T10:46:40.451Z,33.78
2023-01-22T10:49:15.189Z,34.02
2023-01-22T10:51:44.382Z,33.93
2023-01-22T10:54:23.521Z,34.17
2023-01-22T10:56:51.604Z,33.63
2023-01-22T10:59:23.154Z,33.62
2023-01-22T11:01:57.760Z,34.01
2023-01-22T11:04:28.424Z,33.56
2023-01-22T11:06:58.390Z,33.70
2023-01-22T11:09:29.110Z,33.69
2023-01-22T11:12:01.011Z,34.17
2023-01-22T11:14:30.476Z,34.11
2023-01-22T11:17:02.707Z,34.10
2023-01-22T11:19:43.176Z,33.84
2023-01-22T11:22:24.314Z,34.19
2023-01-22T11:24:52.626Z,33.70
2023-01-22T11:27:31.346Z,34.07
2023-01-22T11:30:38.295Z,33.61
2023-01-22T11:33:13.846Z,34.02
2023-01-22T11:35:45.362Z,33.69
2023-01-22T11:38:18.255Z,33.57
2023-01-22T11:41:01.012Z,33.81
2023-01-22T11:43:45.126Z,33.52
2023-01-22T11:46:24.568Z,33.63
2023-01-22T11:49:00.929Z,34.34
2023-01-22T11:51:32.799Z,33.61
2023-01-22T11:54:23.616Z,33.56
2023-01-22T11:57:08.274Z,33.40
2023-01-22T11:59:43.060Z,34.13
2023-01-22T12:02:23.734Z,33.39
2023-01-22T12:05:09.520Z,33.35
2023-01-22T12:08:00.241Z,33.75
2023-01-22T12:10:47.470Z,33.56
2023-01-22T12:13:26.742Z,33.74
2023-01-22T12:15:57.772Z,34.16
2023-01-22T12:18:42.239Z,33.54
2023-01-22T12:21:15.296Z,33.60
2023-01-22T12:23:45.477Z,33.98
2023-01-22T12:26:16.033Z,33.97
2023-01-22T12:28:46.075Z,33.61
2023-01-22T12:31:16.443Z,33.75
2023-01-22T12:33:46.177Z,33.24
2023-01-22T12:36:18.867Z,33.92
2023-01-22T12:38:50.747Z,33.89
2023-01-22T12:41:44.401Z,33.48
2023-01-22T12:44:22.750Z,33.59
2023-01-22T12:46:58.419Z,33.95
2023-01-22T12:49:27.256Z,33.88
2023-01-22T12:51:57.278Z,33.71
2023-01-22T12:54:30.207Z,33.52
2023-01-22T12:57:11.535Z,33.62
2023-01-22T12:59:44.767Z,33.86
2023-01-22T13:02:35.876Z,33.41
2023-01-22T13:05:11.945Z,33.44
2023-01-22T13:07:42.101Z,33.60
2023-01-22T13:10:24.503Z,33.68
2023-01-22T13:12:53.891Z,34.00
2023-01-22T13:15:23.354Z,33.56
2023-01-22T13:18:06.428Z,33.71
2023-01-22T13:20:36.209Z,34.06
2023-01-22T13:23:06.359Z,33.51
2023-01-22T13:25:34.606Z,33.61
2023-01-22T13:28:03.071Z,33.83
2023-01-22T13:30:32.006Z,33.95
2023-01-22T13:33:06.994Z,34.06
2023-01-22T13:35:36.984Z,33.71
2023-01-22T13:38:06.486Z,34.49
2023-01-22T13:40:46.254Z,34.48
2023-01-22T13:43:19.249Z,34.64
2023-01-22T13:45:47.416Z,35.45
2023-01-22T13:48:16.771Z,34.78
2023-01-22T13:50:47.648Z,35.05
2023-01-22T13:53:25.060Z,34.70
2023-01-22T13:55:53.242Z,35.22
2023-01-22T13:58:46.467Z,34.46
2023-01-22T14:01:27.667Z,35.14
2023-01-22T14:03:59.582Z,35.19
2023-01-22T14:06:27.768Z,35.08
2023-01-22T14:08:58.092Z,34.99
2023-01-22T14:11:26.238Z,35.01
2023-01-22T14:13:54.511Z,35.03
2023-01-22T14:16:22.743Z,34.63
2023-01-22T14:18:50.885Z,35.32
2023-01-22T14:21:19.068Z,34.76
2023-01-22T14:23:47.225Z,34.74
2023-01-22T14:26:16.711Z,34.99
2023-01-22T14:28:44.872Z,35.02
2023-01-22T14:31:12.974Z,34.49
2023-01-22T14:33:41.103Z,34.82
2023-01-22T14:36:09.853Z,34.79
2023-01-22T14:38:37.999Z,34.78
2023-01-22T14:41:06.421Z,34.50
2023-01-22T14:43:36.093Z,35.16
2023-01-22T14:46:08.149Z,35.00
2023-01-22T14:48:36.445Z,34.98
2023-01-22T14:51:09.359Z,35.00
2023-01-22T14:53:38.173Z,35.28
2023-01-22T14:56:06.764Z,34.53
2023-01-22T14:58:36.614Z,35.34
2023-01-22T15:01:15.481Z,34.68
2023-01-22T15:03:43.746Z,35.42
2023-01-22T15:06:11.855Z,35.23
2023-01-22T15:08:40.184Z,34.95
2023-01-22T15:11:08.283Z,34.69
2023-01-22T15:13:37.843Z,35.16
2023-01-22T15:16:06.733Z,34.78
2023-01-22T15:18:35.160Z,35.21
2023-01-22T15:21:04.069Z,34.87
2023-01-22T15:23:32.224Z,34.46
2023-01-22T15:26:00.531Z,35.12
2023-01-22T15:28:28.706Z,34.86
2023-01-22T15:31:01.105Z,35.08
2023-01-22T15:33:29.350Z,35.01
2023-01-22T15:35:57.509Z,34.50
2023-01-22T15:38:25.638Z,34.31
2023-01-22T15:41:03.459Z,34.46
2023-01-22T15:43:31.610Z,34.92
2023-01-22T15:46:01.142Z,34.51
2023-01-22T15:48:29.343Z,34.78
2023-01-22T15:51:07.520Z,34.24
2023-01-22T15:53:35.694Z,34.65
2023-01-22T15:56:04.118Z,34.70
2023-01-22T15:58:32.619Z,34.29
2023-01-22T16:01:02.167Z,34.52
2023-01-22T16:03:30.319Z,34.37
2023-01-22T16:06:08.879Z,34.76
2023-01-22T16:08:37.045Z,34.67
2023-01-22T16:11:05.465Z,35.44
2023-01-22T16:13:33.624Z,35.45
2023-01-22T16:16:04.186Z,35.28
2023-01-22T16:18:33.080Z,35.46
2023-01-22T16:21:01.974Z,34.94
2023-01-22T16:23:30.846Z,35.36
2023-01-22T16:25:59.079Z,35.36
2023-01-22T16:28:27.188Z,35.18
2023-01-22T16:30:55.479Z,35.40
2023-01-22T16:33:27.052Z,34.77
2023-01-22T16:36:00.059Z,34.50
2023-01-22T16:38:28.616Z,34.88
2023-01-22T16:40:57.228Z,34.39
2023-01-22T16:43:25.400Z,34.62
2023-01-22T16:45:53.573Z,35.15
2023-01-22T16:48:21.649Z,35.09
2023-01-22T16:50:51.271Z,34.83
2023-01-22T16:53:19.369Z,34.63
2023-01-22T16:55:47.471Z,34.53
2023-01-22T16:58:15.582Z,34.81
2023-01-22T17:00:43.774Z,34.94
2023-01-22T17:03:11.937Z,35.16
2023-01-22T17:05:40.155Z,34.56
2023-01-22T17:08:09.662Z,34.98
2023-01-22T17:10:38.029Z,34.93
2023-01-22T17:13:06.681Z,34.43
2023-01-22T17:15:34.980Z,34.62
2023-01-22T17:18:03.250Z,35.22
2023-01-22T17:20:31.463Z,34.93
2023-01-22T17:22:59.594Z,35.28
2023-01-22T17:25:29.144Z,34.62
2023-01-22T17:27:57.334Z,34.81
2023-01-22T17:30:25.472Z,35.17
2023-01-22T17:32:53.611Z,34.52
2023-01-22T17:35:22.060Z,35.04
2023-01-22T17:37:50.315Z,34.93
2023-01-22T17:40:18.726Z,34.70
2023-01-22T17:42:48.348Z,34.55
2023-01-22T17:45:16.643Z,35.15
2023-01-22T17:47:45.524Z,34.65
2023-01-22T17:50:14.001Z,35.46
2023-01-22T17:52:42.142Z,34.52
2023-01-22T17:55:11.183Z,34.67
2023-01-22T17:57:41.378Z,34.99
2023-01-22T18:00:12.660Z,34.68
2023-01-22T18:02:40.890Z,34.80
2023-01-22T18:05:10.462Z,34.50
2023-01-22T18:07:38.679Z,35.23
2023-01-22T18:10:07.273Z,35.04
2023-01-22T18:12:35.387Z,35.15
2023-01-22T18:15:04.026Z,34.83
2023-01-22T18:17:33.563Z,34.39
2023-01-22T18:20:03.399Z,34.42
2023-01-22T18:22:31.635Z,34.75
2023-01-22T18:24:59.758Z,34.76
2023-01-22T18:27:27.920Z,34.77
2023-01-22T18:29:56.048Z,34.92
2023-01-22T18:32:24.418Z,34.61
2023-01-22T18:34:53.858Z,35.38
2023-01-22T18:37:21.975Z,35.46
2023-01-22T18:39:50.029Z,35.66
2023-01-22T18:42:18.179Z,35.96
2023-01-22T18:44:46.451Z,35.96
2023-01-22T18:47:15.579Z,36.68
2023-01-22T18:49:43.888Z,36.25
2023-01-22T18:52:13.434Z,36.07
2023-01-22T18:54:41.584Z,36.16
2023-01-22T18:57:09.631Z,36.81
2023-01-22T18:59:37.811Z,36.77
2023-01-22T19:02:05.956Z,36.42
2023-01-22T19:04:34.444Z,36.50
2023-01-22T19:07:02.548Z,36.75
2023-01-22T19:09:32.102Z,36.43
2023-01-22T19:12:00.309Z,36.69
2023-01-22T19:14:28.423Z,36.81
2023-01-22T19:16:56.645Z,37.55
2023-01-22T19:19:24.801Z,37.92
2023-01-22T19:21:54.299Z,38.68
2023-01-22T19:24:25.078Z,37.95
2023-01-22T19:26:55.183Z,38.65
2023-01-22T19:29:24.645Z,39.01
2023-01-22T19:31:53.983Z,38.66
2023-01-22T19:34:24.817Z,39.37
2023-01-22T19:36:53.615Z,39.33
2023-01-22T19:39:22.504Z,38.78
2023-01-22T19:41:50.702Z,38.97
2023-01-22T19:44:20.205Z,39.00
2023-01-22T19:46:48.477Z,39.62
2023-01-22T19:49:16.634Z,39.34
2023-01-22T19:51:44.801Z,39.84
2023-01-22T19:54:12.941Z,39.62
2023-01-22T19:56:43.271Z,39.52
2023-01-22T19:59:14.549Z,39.62
2023-01-22T20:01:45.581Z,39.54
2023-01-22T20:04:20.407Z,39.63
2023-01-22T20:06:50.945Z,39.03
2023-01-22T20:09:21.725Z,39.15
2023-01-22T20:11:53.479Z,39.04
2023-01-22T20:14:22.704Z,39.33
2023-01-22T20:16:52.139Z,38.86
2023-01-22T20:19:20.305Z,39.05
2023-01-22T20:21:48.378Z,39.39
2023-01-22T20:24:16.691Z,39.02
2023-01-22T20:26:44.768Z,38.66
2023-01-22T20:29:13.291Z,38.70
2023-01-22T20:31:41.519Z,38.94
2023-01-22T20:34:11.006Z,39.23
2023-01-22T20:36:39.072Z,38.49
2023-01-22T20:39:07.182Z,38.91
2023-01-22T20:41:35.402Z,38.89
2023-01-22T20:44:03.607Z,38.90
2023-01-22T20:46:31.827Z,38.92
2023-01-22T20:49:00.011Z,38.26
2023-01-22T20:51:29.788Z,38.52
2023-01-22T20:53:58.069Z,38.57
2023-01-22T20:56:28.441Z,38.29
2023-01-22T20:58:57.228Z,38.47
2023-01-22T21:01:25.353Z,38.60
2023-01-22T21:03:53.857Z,38.44
2023-01-22T21:06:22.013Z,37.99
2023-01-22T21:08:52.871Z,37.83
2023-01-22T21:11:22.035Z,38.25
2023-01-22T21:13:51.347Z,38.03
2023-01-22T21:16:23.112Z,37.82
2023-01-22T21:18:51.387Z,38.11
2023-01-22T21:21:20.097Z,38.31
2023-01-22T21:23:48.418Z,37.92
2023-01-22T21:26:19.287Z,38.03
2023-01-22T21:28:48.331Z,37.70
2023-01-22T21:31:17.340Z,38.13
2023-01-22T21:33:45.703Z,37.73
2023-01-22T21:36:14.580Z,37.90
2023-01-22T21:38:42.758Z,37.73
2023-01-22T21:41:12.488Z,37.90
2023-01-22T21:44:00.755Z,37.91
2023-01-22T21:46:29.912Z,37.96
2023-01-22T21:48:58.940Z,37.87
2023-01-22T21:51:27.243Z,38.21
2023-01-22T21:53:55.801Z,37.72
2023-01-22T21:56:24.048Z,37.59
2023-01-22T21:58:53.467Z,37.75
2023-01-22T22:01:22.220Z,37.72
2023-01-22T22:03:50.346Z,37.54
2023-01-22T22:06:18.460Z,37.49
2023-01-22T22:08:46.545Z,37.83
2023-01-22T22:11:14.743Z,37.53
2023-01-22T22:13:42.824Z,37.60
2023-01-22T22:16:13.052Z,37.87
2023-01-22T22:18:41.346Z,37.96
2023-01-22T22:21:09.647Z,37.76
2023-01-22T22:23:37.838Z,37.71
2023-01-22T22:26:06.321Z,37.27
2023-01-22T22:28:34.607Z,37.25
2023-01-22T22:31:06.427Z,37.79
2023-01-22T22:33:36.047Z,37.60
2023-01-22T22:36:04.117Z,37.50
2023-01-22T22:38:32.195Z,37.56
2023-01-22T22:41:01.713Z,37.10
2023-01-22T22:43:33.200Z,37.11
2023-01-22T22:46:05.672Z,37.50
2023-01-22T22:48:35.268Z,37.08
2023-01-22T22:51:10.761Z,36.88
2023-01-22T22:53:38.915Z,37.28
2023-01-22T22:56:07.890Z,37.64
2023-01-22T22:58:36.019Z,37.49
2023-01-22T23:01:07.685Z,37.71
2023-01-22T23:03:37.857Z,37.22
2023-01-22T23:06:08.571Z,37.10
2023-01-22T23:08:37.323Z,37.59
2023-01-22T23:11:06.093Z,36.93
2023-01-22T23:13:34.333Z,37.68
2023-01-22T23:16:02.783Z,37.02
2023-01-22T23:18:31.088Z,37.34
2023-01-22T23:21:04.279Z,37.25
2023-01-22T23:23:32.607Z,37.61
2023-01-22T23:26:00.998Z,36.87
2023-01-22T23:28:29.275Z,37.16
2023-01-22T23:30:57.651Z,36.87
2023-01-22T23:33:26.080Z,36.91
2023-01-22T23:35:56.959Z,36.96
2023-01-22T23:38:26.692Z,37.54
2023-01-22T23:40:57.997Z,37.56
2023-01-22T23:43:26.319Z,37.55
2023-01-22T23:45:54.683Z,37.18
2023-01-22T23:48:22.973Z,36.96
2023-01-22T23:50:52.130Z,37.05
2023-01-22T23:53:20.188Z,37.19
2023-01-22T23:55:49.895Z,37.54
2023-01-22T23:58:18.024Z,37.38
